Clare Christine — V2DT7 — position and weather

sailwx.info

Track history (hours):
 
Tides and Currents Weather Stations Pressure Air Temp Water Temp Dewpoint Dewpoint Depression Visibility Wind Speed Wind Dir Waves Ship Positions

Clare Christine

Last reported at 2014-Dec-18 01:32 UTC. Time now 2014-Dec-18 02:33 UTC.
Position N 46°28' W 001°47'.

Length 89 m; draft 3.4 m.

Type: Cargo ship. MMSI: 305379000.

Date/timePositionNaut miles runAvg speedWind from/ knotsBaromVisibWave heightAir tempDewpointWater temp
2014-Dec-18 01:32N 46°28' W 001°47'0 0.0
2014-Dec-18 00:32N 46°28' W 001°47'0 0.0
2014-Dec-17 23:32N 46°28' W 001°47'0 0.0
2014-Dec-17 22:32N 46°28' W 001°47'0 0.0
2014-Dec-17 21:32N 46°28' W 001°47'0 0.0
2014-Dec-17 20:32N 46°28' W 001°47'0 0.0
2014-Dec-17 19:32N 46°28' W 001°47'0 0.0
2014-Dec-17 18:32N 46°28' W 001°47'0 0.0
2014-Dec-17 17:32N 46°28' W 001°47'0 0.0
2014-Dec-17 16:32N 46°28' W 001°47'0 0.0
2014-Dec-17 15:32N 46°28' W 001°47'0 0.0
2014-Dec-17 14:32N 46°28' W 001°47'0 0.0
2014-Dec-17 13:32N 46°28' W 001°47'0 0.0
2014-Dec-17 12:32N 46°28' W 001°47'0 0.0
2014-Dec-17 11:32N 46°28' W 001°47'0 0.0
2014-Dec-17 10:32N 46°28' W 001°47'0 0.0
2014-Dec-17 09:32N 46°28' W 001°47'0 0.0
2014-Dec-17 08:32N 46°28' W 001°47'0 0.0
2014-Dec-17 07:32N 46°28' W 001°47'0 0.2
2014-Dec-17 06:33N 46°28' W 001°47'8 8.1
2014-Dec-17 05:33N 46°22' W 001°54'7 7.4
2014-Dec-17 04:33N 46°20' W 002°04'6 6.4
2014-Dec-17 03:33N 46°22' W 002°13'7 6.4
2014-Dec-17 02:29N 46°25' W 002°22'8 6.6
2014-Dec-17 01:17N 46°28' W 002°32'355 8.3
2014-Dec-15 06:32N 51°58' W 005°50'9 9.7
2014-Dec-15 05:33N 52°07' W 005°45'9 9.0
2014-Dec-15 04:33N 52°16' W 005°39'99 7.6
2014-Dec-14 15:31N 53°34' W 003°59'7 7.4
2014-Dec-14 14:33N 53°34' W 003°47'8 7.5
2014-Dec-14 13:32N 53°34' W 003°34'7 7.7
2014-Dec-14 12:33N 53°33' W 003°22'8 8.3
2014-Dec-14 11:33N 53°32' W 003°08'6 6.0
2014-Dec-14 10:31N 53°27' W 003°01'0 0.1
2014-Dec-14 09:31N 53°27' W 003°01'0 0.0
2014-Dec-14 08:31N 53°27' W 003°01'0 0.0
2014-Dec-14 07:31N 53°27' W 003°01'0 0.0
2014-Dec-14 06:31N 53°27' W 003°01'0 0.0
2014-Dec-14 05:31N 53°27' W 003°01'0 0.0
2014-Dec-14 04:19N 53°27' W 003°01'0 0.0
2014-Dec-14 03:31N 53°27' W 003°01'0 0.0
2014-Dec-14 02:19N 53°27' W 003°01'0 0.0
2014-Dec-14 01:19N 53°27' W 003°01'0 0.0
2014-Dec-14 00:33N 53°27' W 003°01'0 0.0
2014-Dec-13 23:33N 53°27' W 003°01'0 0.0
2014-Dec-13 22:33N 53°27' W 003°01'0 0.0
2014-Dec-13 21:33N 53°27' W 003°01'0 0.0
2014-Dec-13 20:33N 53°27' W 003°01'0 0.0
2014-Dec-13 19:33N 53°27' W 003°01'0 0.0
2014-Dec-13 18:33N 53°27' W 003°01'0 0.0
2014-Dec-13 17:33N 53°27' W 003°01'0 0.0
2014-Dec-13 16:33N 53°27' W 003°01'0 0.1
2014-Dec-13 15:33N 53°27' W 003°01'0 0.0
2014-Dec-13 14:33N 53°27' W 003°01'0 0.0
2014-Dec-13 13:33N 53°27' W 003°01'0 0.2
2014-Dec-13 12:33N 53°27' W 003°01'4 4.2
2014-Dec-13 11:33N 53°30' W 003°06'10 9.6
2014-Dec-13 10:33N 53°31' W 003°22'9 8.5
2014-Dec-13 09:33N 53°31' W 003°36'12 9.1
2014-Dec-13 08:17N 53°30' W 003°56'  
Track history (hours):
 
Tides and Currents Weather Stations Pressure Air Temp Water Temp Dewpoint Dewpoint Depression Visibility Wind Speed Wind Dir Waves Ship Positions

Clare Christine

Last reported at 2014-Dec-18 01:32 UTC. Time now 2014-Dec-18 02:33 UTC.
Position N 46°28' W 001°47'.

Length 89 m; draft 3.4 m.

Type: Cargo ship. MMSI: 305379000.

Date/timePositionNaut miles runAvg speedWind from/ knotsBaromVisibWave heightAir tempDewpointWater temp
2014-Dec-18 01:32N 46°28' W 001°47'0 0.0
2014-Dec-18 00:32N 46°28' W 001°47'0 0.0
2014-Dec-17 23:32N 46°28' W 001°47'0 0.0
2014-Dec-17 22:32N 46°28' W 001°47'0 0.0
2014-Dec-17 21:32N 46°28' W 001°47'0 0.0
2014-Dec-17 20:32N 46°28' W 001°47'0 0.0
2014-Dec-17 19:32N 46°28' W 001°47'0 0.0
2014-Dec-17 18:32N 46°28' W 001°47'0 0.0
2014-Dec-17 17:32N 46°28' W 001°47'0 0.0
2014-Dec-17 16:32N 46°28' W 001°47'0 0.0
2014-Dec-17 15:32N 46°28' W 001°47'0 0.0
2014-Dec-17 14:32N 46°28' W 001°47'0 0.0
2014-Dec-17 13:32N 46°28' W 001°47'0 0.0
2014-Dec-17 12:32N 46°28' W 001°47'0 0.0
2014-Dec-17 11:32N 46°28' W 001°47'0 0.0
2014-Dec-17 10:32N 46°28' W 001°47'0 0.0
2014-Dec-17 09:32N 46°28' W 001°47'0 0.0
2014-Dec-17 08:32N 46°28' W 001°47'0 0.0
2014-Dec-17 07:32N 46°28' W 001°47'0 0.2
2014-Dec-17 06:33N 46°28' W 001°47'8 8.1
2014-Dec-17 05:33N 46°22' W 001°54'7 7.4
2014-Dec-17 04:33N 46°20' W 002°04'6 6.4
2014-Dec-17 03:33N 46°22' W 002°13'7 6.4
2014-Dec-17 02:29N 46°25' W 002°22'8 6.6
2014-Dec-17 01:17N 46°28' W 002°32'355 8.3
2014-Dec-15 06:32N 51°58' W 005°50'9 9.7
2014-Dec-15 05:33N 52°07' W 005°45'9 9.0
2014-Dec-15 04:33N 52°16' W 005°39'99 7.6
2014-Dec-14 15:31N 53°34' W 003°59'7 7.4
2014-Dec-14 14:33N 53°34' W 003°47'8 7.5
2014-Dec-14 13:32N 53°34' W 003°34'7 7.7
2014-Dec-14 12:33N 53°33' W 003°22'8 8.3
2014-Dec-14 11:33N 53°32' W 003°08'6 6.0
2014-Dec-14 10:31N 53°27' W 003°01'0 0.1
2014-Dec-14 09:31N 53°27' W 003°01'0 0.0
2014-Dec-14 08:31N 53°27' W 003°01'0 0.0
2014-Dec-14 07:31N 53°27' W 003°01'0 0.0
2014-Dec-14 06:31N 53°27' W 003°01'0 0.0
2014-Dec-14 05:31N 53°27' W 003°01'0 0.0
2014-Dec-14 04:19N 53°27' W 003°01'0 0.0
2014-Dec-14 03:31N 53°27' W 003°01'0 0.0
2014-Dec-14 02:19N 53°27' W 003°01'0 0.0
2014-Dec-14 01:19N 53°27' W 003°01'0 0.0
2014-Dec-14 00:33N 53°27' W 003°01'0 0.0
2014-Dec-13 23:33N 53°27' W 003°01'0 0.0
2014-Dec-13 22:33N 53°27' W 003°01'0 0.0
2014-Dec-13 21:33N 53°27' W 003°01'0 0.0
2014-Dec-13 20:33N 53°27' W 003°01'0 0.0
2014-Dec-13 19:33N 53°27' W 003°01'0 0.0
2014-Dec-13 18:33N 53°27' W 003°01'0 0.0
2014-Dec-13 17:33N 53°27' W 003°01'0 0.0
2014-Dec-13 16:33N 53°27' W 003°01'0 0.1
2014-Dec-13 15:33N 53°27' W 003°01'0 0.0
2014-Dec-13 14:33N 53°27' W 003°01'0 0.0
2014-Dec-13 13:33N 53°27' W 003°01'0 0.2
2014-Dec-13 12:33N 53°27' W 003°01'4 4.2
2014-Dec-13 11:33N 53°30' W 003°06'10 9.6
2014-Dec-13 10:33N 53°31' W 003°22'9 8.5
2014-Dec-13 09:33N 53°31' W 003°36'12 9.1
2014-Dec-13 08:17N 53°30' W 003°56'  

Dump ship's entire track history